createdAt,value
2023-12-05T00:00:29.109Z,-1.65
2023-12-05T00:01:35.125Z,-1.61
2023-12-05T00:02:37.310Z,-1.61
2023-12-05T00:03:39.611Z,-1.57
2023-12-05T00:04:43.747Z,-1.53
2023-12-05T00:05:46.031Z,-1.50
2023-12-05T00:06:48.301Z,-1.50
2023-12-05T00:07:51.528Z,-1.47
2023-12-05T00:08:53.746Z,-1.48
2023-12-05T00:09:55.950Z,-1.52
2023-12-05T00:10:58.086Z,-1.55
2023-12-05T00:12:00.394Z,-1.55
2023-12-05T00:13:03.439Z,-1.53
2023-12-05T00:14:05.691Z,-1.48
2023-12-05T00:15:08.361Z,-1.49
2023-12-05T00:16:12.168Z,-1.48
2023-12-05T00:17:14.905Z,-1.48
2023-12-05T00:18:17.118Z,-1.45
2023-12-05T00:19:19.414Z,-1.42
2023-12-05T00:20:21.660Z,-1.41
2023-12-05T00:21:23.921Z,-1.40
2023-12-05T00:22:29.026Z,-1.43
2023-12-05T00:23:31.161Z,-1.41
2023-12-05T00:24:33.468Z,-1.40
2023-12-05T00:25:35.645Z,-1.39
2023-12-05T00:26:37.810Z,-1.41
2023-12-05T00:27:39.973Z,-1.43
2023-12-05T00:28:42.169Z,-1.41
2023-12-05T00:29:44.308Z,-1.33
2023-12-05T00:30:46.471Z,-1.32
2023-12-05T00:31:49.092Z,-1.41
2023-12-05T00:32:51.360Z,-1.47
2023-12-05T00:33:53.700Z,-1.50
2023-12-05T00:34:55.991Z,-1.50
2023-12-05T00:35:58.225Z,-1.51
2023-12-05T00:37:00.367Z,-1.51
2023-12-05T00:38:02.848Z,-1.49
2023-12-05T00:39:05.610Z,-1.50
2023-12-05T00:40:08.461Z,-1.53
2023-12-05T00:41:11.080Z,-1.55
2023-12-05T00:42:13.293Z,-1.54
2023-12-05T00:43:15.554Z,-1.55
2023-12-05T00:44:17.950Z,-1.51
2023-12-05T00:45:21.274Z,-1.52
2023-12-05T00:46:24.032Z,-1.51
2023-12-05T00:47:26.224Z,-1.50
2023-12-05T00:48:29.052Z,-1.44
2023-12-05T00:49:31.449Z,-1.47
2023-12-05T00:50:38.054Z,-1.46
2023-12-05T00:51:45.717Z,-1.47
2023-12-05T00:52:48.294Z,-1.50
2023-12-05T00:53:50.475Z,-1.48
2023-12-05T00:54:52.691Z,-1.47
2023-12-05T00:55:54.972Z,-1.48
2023-12-05T00:56:57.367Z,-1.48
2023-12-05T00:57:59.565Z,-1.48
2023-12-05T00:59:01.694Z,-1.41
2023-12-05T01:00:06.369Z,-1.37
2023-12-05T01:01:09.028Z,-1.35
2023-12-05T01:02:11.361Z,-1.35
2023-12-05T01:03:13.823Z,-1.36
2023-12-05T01:04:16.314Z,-1.37
2023-12-05T01:05:18.779Z,-1.38
2023-12-05T01:06:21.246Z,-1.36
2023-12-05T01:07:23.488Z,-1.38
2023-12-05T01:08:25.668Z,-1.43
2023-12-05T01:09:27.860Z,-1.47
2023-12-05T01:10:30.271Z,-1.50
2023-12-05T01:11:32.544Z,-1.50
2023-12-05T01:12:34.788Z,-1.48
2023-12-05T01:13:36.964Z,-1.47
2023-12-05T01:14:39.100Z,-1.40
2023-12-05T01:15:41.393Z,-1.46
2023-12-05T01:16:44.856Z,-1.48
2023-12-05T01:17:47.259Z,-1.43
2023-12-05T01:18:49.461Z,-1.42
2023-12-05T01:19:51.628Z,-1.42
2023-12-05T01:20:53.792Z,-1.43
2023-12-05T01:21:56.001Z,-1.42
2023-12-05T01:22:58.320Z,-1.38
2023-12-05T01:24:00.454Z,-1.38
2023-12-05T01:25:02.588Z,-1.38
2023-12-05T01:26:05.246Z,-1.41
2023-12-05T01:27:07.407Z,-1.41
2023-12-05T01:28:10.345Z,-1.34
2023-12-05T01:29:12.502Z,-1.33
2023-12-05T01:30:15.018Z,-1.34
2023-12-05T01:31:17.197Z,-1.35
2023-12-05T01:32:19.376Z,-1.33
2023-12-05T01:33:21.603Z,-1.32
2023-12-05T01:34:23.858Z,-1.32
2023-12-05T01:35:26.090Z,-1.31
2023-12-05T01:36:28.325Z,-1.32
2023-12-05T01:37:31.358Z,-1.31
2023-12-05T01:38:33.526Z,-1.29
2023-12-05T01:39:35.672Z,-1.32
2023-12-05T01:40:37.939Z,-1.32
2023-12-05T01:41:40.153Z,-1.34
2023-12-05T01:42:42.945Z,-1.34
2023-12-05T01:43:45.521Z,-1.33
2023-12-05T01:44:47.926Z,-1.35
2023-12-05T01:45:50.078Z,-1.37
2023-12-05T01:46:52.371Z,-1.36
2023-12-05T01:47:56.111Z,-1.35
2023-12-05T01:48:59.326Z,-1.40
2023-12-05T01:50:04.018Z,-1.39
2023-12-05T01:51:06.810Z,-1.38
2023-12-05T01:52:09.215Z,-1.40
2023-12-05T01:53:12.735Z,-1.40
2023-12-05T01:54:15.788Z,-1.35
2023-12-05T01:55:18.580Z,-1.35
2023-12-05T01:56:20.888Z,-1.37
2023-12-05T01:57:24.589Z,-1.39
2023-12-05T01:58:27.087Z,-1.39
2023-12-05T01:59:29.322Z,-1.42
2023-12-05T02:00:31.960Z,-1.38
2023-12-05T02:01:35.214Z,-1.39
2023-12-05T02:02:37.433Z,-1.35
2023-12-05T02:03:40.014Z,-1.35
2023-12-05T02:04:42.636Z,-1.38
2023-12-05T02:05:44.900Z,-1.39
2023-12-05T02:06:48.813Z,-1.41
2023-12-05T02:07:51.447Z,-1.42
2023-12-05T02:08:54.747Z,-1.40
2023-12-05T02:09:57.543Z,-1.40
2023-12-05T02:10:59.713Z,-1.38
2023-12-05T02:12:02.352Z,-1.37
2023-12-05T02:13:04.834Z,-1.40
2023-12-05T02:14:08.288Z,-1.43
2023-12-05T02:15:10.508Z,-1.45
2023-12-05T02:16:23.446Z,-1.43
2023-12-05T02:17:29.316Z,-1.41
2023-12-05T02:18:35.103Z,-1.42
2023-12-05T02:19:43.480Z,-1.39
2023-12-05T02:21:04.119Z,-1.32
2023-12-05T02:22:27.303Z,-1.24
2023-12-05T02:23:32.453Z,-1.36
2023-12-05T02:24:48.020Z,-1.38
2023-12-05T02:25:59.274Z,-1.43
2023-12-05T02:27:01.416Z,-1.44
2023-12-05T02:28:04.743Z,-1.49
2023-12-05T02:29:06.928Z,-1.53
2023-12-05T02:30:15.913Z,-1.58
2023-12-05T02:31:18.815Z,-1.67
2023-12-05T02:32:21.204Z,-1.69
2023-12-05T02:33:23.695Z,-1.65
2023-12-05T02:34:26.073Z,-1.59
2023-12-05T02:35:28.356Z,-1.57
2023-12-05T02:36:46.003Z,-1.54
2023-12-05T02:38:00.056Z,-1.51
2023-12-05T02:39:14.038Z,-1.53
2023-12-05T02:40:27.859Z,-1.55
2023-12-05T02:41:31.236Z,-1.54
2023-12-05T02:42:33.710Z,-1.54
2023-12-05T02:43:43.471Z,-1.57
2023-12-05T02:44:47.475Z,-1.57
2023-12-05T02:45:50.945Z,-1.57
2023-12-05T02:46:53.256Z,-1.55
2023-12-05T02:47:56.010Z,-1.56
2023-12-05T02:48:58.988Z,-1.59
2023-12-05T02:50:01.233Z,-1.61
2023-12-05T02:51:04.165Z,-1.58
2023-12-05T02:52:06.459Z,-1.52
2023-12-05T02:53:09.390Z,-1.52
2023-12-05T02:54:11.541Z,-1.42
2023-12-05T02:55:13.711Z,-1.52
2023-12-05T02:56:16.178Z,-1.55
2023-12-05T02:57:18.425Z,-1.54
2023-12-05T02:58:20.610Z,-1.54
2023-12-05T02:59:22.819Z,-1.52
2023-12-05T03:00:25.017Z,-1.50
2023-12-05T03:01:27.386Z,-1.51
2023-12-05T03:02:29.603Z,-1.50
2023-12-05T03:03:31.884Z,-1.44
2023-12-05T03:04:34.167Z,-1.47
2023-12-05T03:05:36.588Z,-1.49
2023-12-05T03:06:38.837Z,-1.49
2023-12-05T03:07:41.052Z,-1.51
2023-12-05T03:08:43.215Z,-1.49
2023-12-05T03:09:47.403Z,-1.48
2023-12-05T03:10:58.471Z,-1.46
2023-12-05T03:12:02.307Z,-1.43
2023-12-05T03:13:04.471Z,-1.47
2023-12-05T03:14:07.359Z,-1.47
2023-12-05T03:15:09.975Z,-1.43
2023-12-05T03:16:12.117Z,-1.42
2023-12-05T03:17:14.521Z,-1.38
2023-12-05T03:18:16.874Z,-1.42
2023-12-05T03:19:20.223Z,-1.46
2023-12-05T03:20:22.691Z,-1.48
2023-12-05T03:21:24.940Z,-1.49
2023-12-05T03:22:27.131Z,-1.47
2023-12-05T03:23:29.979Z,-1.45
2023-12-05T03:24:32.514Z,-1.43
2023-12-05T03:25:34.659Z,-1.45
2023-12-05T03:26:36.814Z,-1.48
2023-12-05T03:27:39.039Z,-1.49
2023-12-05T03:28:41.236Z,-1.53
2023-12-05T03:29:43.364Z,-1.52
2023-12-05T03:30:45.495Z,-1.49
2023-12-05T03:31:47.801Z,-1.50
2023-12-05T03:32:49.957Z,-1.50
2023-12-05T03:33:52.245Z,-1.50
2023-12-05T03:34:54.709Z,-1.51
2023-12-05T03:35:57.673Z,-1.47
2023-12-05T03:36:59.845Z,-1.45
2023-12-05T03:38:02.966Z,-1.42
2023-12-05T03:39:05.191Z,-1.47
2023-12-05T03:40:07.945Z,-1.49
2023-12-05T03:41:10.750Z,-1.49
2023-12-05T03:42:12.992Z,-1.48
2023-12-05T03:43:15.153Z,-1.45
2023-12-05T03:44:17.353Z,-1.45
2023-12-05T03:45:19.584Z,-1.49
2023-12-05T03:46:21.772Z,-1.56
2023-12-05T03:47:23.970Z,-1.59
2023-12-05T03:48:26.292Z,-1.52
2023-12-05T03:49:28.730Z,-1.53
2023-12-05T03:50:30.884Z,-1.55
2023-12-05T03:51:33.110Z,-1.55
2023-12-05T03:52:35.303Z,-1.55
2023-12-05T03:53:37.513Z,-1.54
2023-12-05T03:54:39.840Z,-1.54
2023-12-05T03:55:41.979Z,-1.50
2023-12-05T03:56:44.106Z,-1.45
2023-12-05T03:57:46.278Z,-1.39
2023-12-05T03:58:48.450Z,-1.41
2023-12-05T03:59:50.711Z,-1.41
2023-12-05T04:00:52.907Z,-1.38
2023-12-05T04:01:55.133Z,-1.39
2023-12-05T04:02:57.377Z,-1.42
2023-12-05T04:03:59.846Z,-1.38
2023-12-05T04:05:02.489Z,-1.40
2023-12-05T04:06:05.155Z,-1.46
2023-12-05T04:07:07.603Z,-1.46
2023-12-05T04:08:09.827Z,-1.45
2023-12-05T04:09:12.124Z,-1.49
2023-12-05T04:10:14.319Z,-1.53
2023-12-05T04:11:16.845Z,-1.55
2023-12-05T04:12:19.122Z,-1.53
2023-12-05T04:13:29.534Z,-1.45
2023-12-05T04:14:32.811Z,-1.47
2023-12-05T04:15:35.041Z,-1.47
2023-12-05T04:16:37.195Z,-1.47
2023-12-05T04:17:39.772Z,-1.46
2023-12-05T04:18:42.030Z,-1.43
2023-12-05T04:19:44.276Z,-1.42
2023-12-05T04:20:46.496Z,-1.42
2023-12-05T04:21:48.649Z,-1.44
2023-12-05T04:22:50.847Z,-1.45
2023-12-05T04:23:53.405Z,-1.44
2023-12-05T04:24:55.637Z,-1.40
2023-12-05T04:25:57.820Z,-1.42
2023-12-05T04:26:59.947Z,-1.41
2023-12-05T04:28:02.609Z,-1.39
2023-12-05T04:29:04.781Z,-1.39
2023-12-05T04:30:08.043Z,-1.38
2023-12-05T04:31:10.507Z,-1.32
2023-12-05T04:32:13.195Z,-1.30
2023-12-05T04:33:15.460Z,-1.37
2023-12-05T04:34:17.788Z,-1.36
2023-12-05T04:35:20.321Z,-1.35
2023-12-05T04:36:25.513Z,-1.42
2023-12-05T04:37:27.933Z,-1.38
2023-12-05T04:38:30.388Z,-1.38
2023-12-05T04:39:32.551Z,-1.40
2023-12-05T04:40:34.734Z,-1.40
2023-12-05T04:41:37.094Z,-1.47
2023-12-05T04:42:39.940Z,-1.45
2023-12-05T04:43:42.186Z,-1.42
2023-12-05T04:44:44.351Z,-1.37
2023-12-05T04:45:47.126Z,-1.36
2023-12-05T04:46:49.840Z,-1.36
2023-12-05T04:47:51.990Z,-1.39
2023-12-05T04:48:54.421Z,-1.38
2023-12-05T04:49:56.615Z,-1.33
2023-12-05T04:50:58.797Z,-1.31
2023-12-05T04:52:00.997Z,-1.27
2023-12-05T04:53:03.496Z,-1.25
2023-12-05T04:54:06.052Z,-1.27
2023-12-05T04:55:08.922Z,-1.25
2023-12-05T04:56:11.404Z,-1.28
2023-12-05T04:57:13.596Z,-1.31
2023-12-05T04:58:15.745Z,-1.32
2023-12-05T04:59:17.913Z,-1.29
2023-12-05T05:00:20.252Z,-1.30
2023-12-05T05:01:22.536Z,-1.31
2023-12-05T05:02:24.902Z,-1.32
2023-12-05T05:03:27.144Z,-1.31
2023-12-05T05:04:29.543Z,-1.31
2023-12-05T05:05:32.780Z,-1.31
2023-12-05T05:06:35.055Z,-1.28
2023-12-05T05:07:37.216Z,-1.27
2023-12-05T05:08:39.425Z,-1.26
2023-12-05T05:09:42.483Z,-1.25
2023-12-05T05:10:44.640Z,-1.23
2023-12-05T05:11:46.811Z,-1.21
2023-12-05T05:12:49.072Z,-1.24
2023-12-05T05:13:56.678Z,-1.25
2023-12-05T05:15:00.934Z,-1.26
2023-12-05T05:16:03.353Z,-1.27
2023-12-05T05:17:05.754Z,-1.26
2023-12-05T05:18:08.058Z,-1.24
2023-12-05T05:19:10.387Z,-1.22
2023-12-05T05:20:12.585Z,-1.24
2023-12-05T05:21:14.812Z,-1.27
2023-12-05T05:22:17.021Z,-1.24
2023-12-05T05:23:19.248Z,-1.23
2023-12-05T05:24:21.482Z,-1.21
2023-12-05T05:25:23.794Z,-1.16
2023-12-05T05:26:26.029Z,-1.22
2023-12-05T05:27:28.243Z,-1.22
2023-12-05T05:28:30.438Z,-1.21
2023-12-05T05:29:32.586Z,-1.22
2023-12-05T05:30:34.741Z,-1.24
2023-12-05T05:31:36.995Z,-1.20
2023-12-05T05:32:39.415Z,-1.16
2023-12-05T05:33:41.752Z,-1.17
2023-12-05T05:34:44.002Z,-1.18
2023-12-05T05:35:46.177Z,-1.16
2023-12-05T05:36:48.352Z,-1.21
2023-12-05T05:37:50.575Z,-1.16
2023-12-05T05:38:52.731Z,-1.19
2023-12-05T05:39:55.298Z,-1.21
2023-12-05T05:41:07.895Z,-1.24
2023-12-05T05:42:10.145Z,-1.29
2023-12-05T05:43:12.484Z,-1.30
2023-12-05T05:44:14.652Z,-1.29
2023-12-05T05:45:16.925Z,-1.31
2023-12-05T05:46:19.100Z,-1.30
2023-12-05T05:47:21.243Z,-1.28
2023-12-05T05:48:23.562Z,-1.23
2023-12-05T05:49:25.920Z,-1.17
2023-12-05T05:50:28.148Z,-1.21
2023-12-05T05:51:30.309Z,-1.20
2023-12-05T05:52:32.522Z,-1.16
2023-12-05T05:53:34.822Z,-1.21
2023-12-05T05:54:36.980Z,-1.22
2023-12-05T05:55:39.144Z,-1.23
2023-12-05T05:56:41.276Z,-1.24
2023-12-05T05:57:43.470Z,-1.12
2023-12-05T05:58:45.673Z,-1.17
2023-12-05T05:59:47.811Z,-1.19
2023-12-05T06:00:50.052Z,-1.21
2023-12-05T06:01:52.421Z,-1.18
2023-12-05T06:02:54.717Z,-1.19
2023-12-05T06:03:57.204Z,-1.16
2023-12-05T06:04:59.439Z,-1.08
2023-12-05T06:06:01.812Z,-1.08
2023-12-05T06:07:04.250Z,-1.03
2023-12-05T06:08:06.429Z,-1.06
2023-12-05T06:09:08.558Z,-1.10
2023-12-05T06:10:10.730Z,-1.12
2023-12-05T06:11:13.737Z,-1.03
2023-12-05T06:12:15.925Z,-1.02
2023-12-05T06:13:18.211Z,-1.09
2023-12-05T06:14:20.510Z,-1.11
2023-12-05T06:15:22.707Z,-1.11
2023-12-05T06:16:24.998Z,-1.14
2023-12-05T06:17:27.226Z,-1.16
2023-12-05T06:18:29.534Z,-1.13
2023-12-05T06:19:31.886Z,-1.12
2023-12-05T06:20:34.149Z,-1.10
2023-12-05T06:21:36.359Z,-1.09
2023-12-05T06:22:38.543Z,-1.09
2023-12-05T06:23:40.697Z,-0.98
2023-12-05T06:24:42.866Z,-1.01
2023-12-05T06:25:45.038Z,-1.06
2023-12-05T06:26:47.222Z,-1.05
2023-12-05T06:27:49.430Z,-1.04
2023-12-05T06:28:51.687Z,-1.01
2023-12-05T06:29:54.555Z,-0.95
2023-12-05T06:30:56.736Z,-0.90
2023-12-05T06:31:58.947Z,-0.91
2023-12-05T06:33:01.219Z,-0.90
2023-12-05T06:34:03.522Z,-0.92
2023-12-05T06:35:06.195Z,-0.96
2023-12-05T06:36:08.802Z,-0.95
2023-12-05T06:37:10.989Z,-0.96
2023-12-05T06:38:14.724Z,-0.95
2023-12-05T06:39:17.037Z,-0.89
2023-12-05T06:40:19.316Z,-0.93
2023-12-05T06:41:21.503Z,-0.92
2023-12-05T06:42:23.855Z,-0.89
2023-12-05T06:43:26.311Z,-0.89
2023-12-05T06:44:28.533Z,-0.91
2023-12-05T06:45:30.689Z,-0.89
2023-12-05T06:46:32.803Z,-0.89
2023-12-05T06:47:34.986Z,-0.88
2023-12-05T06:48:37.202Z,-0.83
2023-12-05T06:49:39.591Z,-0.82
2023-12-05T06:50:46.382Z,-0.81
2023-12-05T06:51:49.468Z,-0.76
2023-12-05T06:52:52.932Z,-0.78
2023-12-05T06:53:55.176Z,-0.81
2023-12-05T06:54:57.813Z,-0.79
2023-12-05T06:56:00.046Z,-0.78
2023-12-05T06:57:02.833Z,-0.73
2023-12-05T06:58:05.022Z,-0.73
2023-12-05T06:59:07.193Z,-0.76
2023-12-05T07:00:10.184Z,-0.72
2023-12-05T07:01:12.463Z,-0.70
2023-12-05T07:02:14.649Z,-0.69
2023-12-05T07:03:17.065Z,-0.67
2023-12-05T07:04:20.196Z,-0.67
2023-12-05T07:05:22.775Z,-0.62
2023-12-05T07:06:25.300Z,-0.67
2023-12-05T07:07:27.582Z,-0.65
2023-12-05T07:08:29.723Z,-0.63
2023-12-05T07:09:34.289Z,-0.62
2023-12-05T07:10:36.765Z,-0.63
2023-12-05T07:11:38.970Z,-0.60
2023-12-05T07:12:41.241Z,-0.62
2023-12-05T07:13:44.403Z,-0.50
2023-12-05T07:14:46.614Z,-0.52
2023-12-05T07:15:48.780Z,-0.49
2023-12-05T07:16:50.968Z,-0.49
2023-12-05T07:17:53.165Z,-0.54
2023-12-05T07:18:56.630Z,-0.56
2023-12-05T07:19:59.498Z,-0.55
2023-12-05T07:21:01.823Z,-0.51
2023-12-05T07:22:04.051Z,-0.49
2023-12-05T07:23:06.229Z,-0.48
2023-12-05T07:24:08.477Z,-0.42
2023-12-05T07:25:10.641Z,-0.41
2023-12-05T07:26:12.882Z,-0.41
2023-12-05T07:27:15.085Z,-0.47
2023-12-05T07:28:17.263Z,-0.53
2023-12-05T07:29:19.450Z,-0.52
2023-12-05T07:30:21.824Z,-0.54
2023-12-05T07:31:23.941Z,-0.61
2023-12-05T07:32:26.202Z,-0.62
2023-12-05T07:33:28.528Z,-0.62
2023-12-05T07:34:30.819Z,-0.56
2023-12-05T07:35:33.085Z,-0.53
2023-12-05T07:36:35.284Z,-0.52
2023-12-05T07:37:37.564Z,-0.48
2023-12-05T07:38:39.700Z,-0.48
2023-12-05T07:39:41.925Z,-0.46
2023-12-05T07:40:44.234Z,-0.41
2023-12-05T07:41:47.038Z,-0.41
2023-12-05T07:42:49.211Z,-0.39
2023-12-05T07:43:51.957Z,-0.38
2023-12-05T07:45:13.952Z,-0.40
2023-12-05T07:46:16.322Z,-0.40
2023-12-05T07:47:18.504Z,-0.41
2023-12-05T07:48:20.769Z,-0.39
2023-12-05T07:49:23.044Z,-0.38
2023-12-05T07:50:25.311Z,-0.42
2023-12-05T07:51:28.574Z,-0.44
2023-12-05T07:52:30.850Z,-0.40
2023-12-05T07:53:33.022Z,-0.40
2023-12-05T07:54:35.171Z,-0.39
2023-12-05T07:55:37.514Z,-0.39
2023-12-05T07:56:39.624Z,-0.38
2023-12-05T07:57:41.821Z,-0.43
2023-12-05T07:58:44.017Z,-0.34
2023-12-05T07:59:46.170Z,-0.37
2023-12-05T08:00:48.368Z,-0.40
2023-12-05T08:01:50.540Z,-0.36
2023-12-05T08:02:52.748Z,-0.31
2023-12-05T08:03:55.109Z,-0.25
2023-12-05T08:04:58.125Z,-0.25
2023-12-05T08:06:02.764Z,-0.22
2023-12-05T08:07:05.781Z,-0.24
2023-12-05T08:08:07.969Z,-0.25
2023-12-05T08:09:10.163Z,-0.20
2023-12-05T08:10:12.456Z,-0.21
2023-12-05T08:11:14.739Z,-0.18
2023-12-05T08:12:16.946Z,-0.10
2023-12-05T08:13:19.080Z,-0.05
2023-12-05T08:14:21.365Z,-0.07
2023-12-05T08:15:23.544Z,-0.11
2023-12-05T08:16:25.737Z,-0.12
2023-12-05T08:17:27.993Z,-0.19
2023-12-05T08:18:30.148Z,-0.21
2023-12-05T08:19:32.345Z,-0.19
2023-12-05T08:20:34.538Z,-0.17
2023-12-05T08:21:36.886Z,-0.11
2023-12-05T08:22:39.125Z,-0.09
2023-12-05T08:23:41.321Z,-0.07
2023-12-05T08:24:43.509Z,-0.07
2023-12-05T08:25:45.757Z,-0.02
2023-12-05T08:26:48.919Z,-0.01
2023-12-05T08:27:51.669Z,0.01
2023-12-05T08:28:53.801Z,0.07
2023-12-05T08:29:55.956Z,0.08
2023-12-05T08:30:58.214Z,0.09
2023-12-05T08:32:00.482Z,0.03
2023-12-05T08:33:02.931Z,0.00
2023-12-05T08:34:05.246Z,0.01
2023-12-05T08:35:09.031Z,-0.03
2023-12-05T08:36:11.767Z,0.02
2023-12-05T08:37:13.888Z,0.03
2023-12-05T08:38:16.118Z,0.03
2023-12-05T08:39:18.289Z,0.06
2023-12-05T08:40:20.436Z,0.09
2023-12-05T08:41:22.826Z,0.07
2023-12-05T08:42:25.001Z,0.02
2023-12-05T08:43:27.161Z,0.07
2023-12-05T08:44:29.367Z,0.10
2023-12-05T08:45:31.667Z,0.09
2023-12-05T08:46:34.115Z,0.15
2023-12-05T08:47:36.302Z,0.15
2023-12-05T08:48:38.483Z,0.16
2023-12-05T08:49:41.594Z,0.17
2023-12-05T08:50:43.823Z,0.18
2023-12-05T08:51:46.093Z,0.21
2023-12-05T08:52:48.714Z,0.19
2023-12-05T08:53:50.834Z,0.21
2023-12-05T08:54:53.068Z,0.23
2023-12-05T08:55:55.208Z,0.25
2023-12-05T08:56:57.666Z,0.26
2023-12-05T08:57:59.808Z,0.29
2023-12-05T08:59:01.975Z,0.35
2023-12-05T09:00:05.863Z,0.41
2023-12-05T09:01:11.234Z,0.44
2023-12-05T09:02:13.368Z,0.40
2023-12-05T09:03:15.656Z,0.34
2023-12-05T09:04:17.942Z,0.28
2023-12-05T09:05:20.300Z,0.28
2023-12-05T09:06:22.832Z,0.28
2023-12-05T09:07:25.275Z,0.30
2023-12-05T09:08:27.519Z,0.37
2023-12-05T09:09:29.763Z,0.35
2023-12-05T09:10:31.912Z,0.39
2023-12-05T09:11:34.137Z,0.49
2023-12-05T09:12:36.306Z,0.50
2023-12-05T09:13:38.524Z,0.49
2023-12-05T09:14:40.669Z,0.55
2023-12-05T09:15:42.948Z,0.52
2023-12-05T09:16:45.119Z,0.56
2023-12-05T09:17:47.397Z,0.57
2023-12-05T09:18:49.797Z,0.54
2023-12-05T09:19:52.175Z,0.52
2023-12-05T09:20:54.378Z,0.57
2023-12-05T09:21:56.711Z,0.50
2023-12-05T09:23:01.729Z,0.50
2023-12-05T09:24:04.436Z,0.50
2023-12-05T09:25:07.992Z,0.48
2023-12-05T09:26:10.401Z,0.59
2023-12-05T09:27:13.192Z,0.58
2023-12-05T09:28:15.473Z,0.55
2023-12-05T09:29:17.742Z,0.53
2023-12-05T09:30:19.985Z,0.52
2023-12-05T09:31:22.196Z,0.52
2023-12-05T09:32:24.458Z,0.54
2023-12-05T09:33:26.633Z,0.54
2023-12-05T09:34:28.838Z,0.53
2023-12-05T09:35:30.987Z,0.50
2023-12-05T09:36:33.211Z,0.47
2023-12-05T09:37:35.364Z,0.42
2023-12-05T09:38:37.511Z,0.43
2023-12-05T09:39:39.758Z,0.44
2023-12-05T09:40:42.055Z,0.46
2023-12-05T09:41:49.352Z,0.45
2023-12-05T09:42:53.662Z,0.43
2023-12-05T09:43:59.492Z,0.47
2023-12-05T09:45:04.361Z,0.48
2023-12-05T09:46:09.960Z,0.51
2023-12-05T09:47:12.556Z,0.50
2023-12-05T09:48:18.955Z,0.53
2023-12-05T09:49:28.065Z,0.52
2023-12-05T09:50:30.456Z,0.52
2023-12-05T09:51:33.528Z,0.49
2023-12-05T09:52:35.923Z,0.52
2023-12-05T09:53:38.784Z,0.52
2023-12-05T09:54:44.872Z,0.48
2023-12-05T09:55:47.374Z,0.47
2023-12-05T09:56:49.678Z,0.54
2023-12-05T09:57:52.161Z,0.55
2023-12-05T09:58:54.949Z,0.56
2023-12-05T09:59:57.081Z,0.55
2023-12-05T10:00:59.639Z,0.58
2023-12-05T10:02:03.964Z,0.56
2023-12-05T10:03:07.884Z,0.60
2023-12-05T10:04:17.495Z,0.61
2023-12-05T10:05:21.372Z,0.56
2023-12-05T10:06:26.293Z,0.55
2023-12-05T10:07:29.193Z,0.54
2023-12-05T10:08:31.828Z,0.57
2023-12-05T10:09:34.376Z,0.62
2023-12-05T10:10:39.216Z,0.65
2023-12-05T10:11:42.216Z,0.71
2023-12-05T10:12:45.352Z,0.78
2023-12-05T10:13:47.530Z,0.79
2023-12-05T10:14:50.413Z,0.88
2023-12-05T10:15:52.688Z,0.91
2023-12-05T10:16:55.789Z,0.91
2023-12-05T10:17:59.481Z,0.95
2023-12-05T10:19:03.310Z,0.99
2023-12-05T10:20:06.559Z,0.99
2023-12-05T10:21:08.810Z,0.93
2023-12-05T10:22:11.170Z,0.94
2023-12-05T10:23:14.050Z,1.01
2023-12-05T10:24:16.167Z,1.04
2023-12-05T10:25:19.235Z,1.10
2023-12-05T10:26:21.384Z,1.16
2023-12-05T10:27:23.515Z,1.23
2023-12-05T10:28:26.595Z,1.29
2023-12-05T10:29:37.962Z,1.38
2023-12-05T10:30:40.299Z,1.37
2023-12-05T10:31:42.579Z,1.36
2023-12-05T10:32:46.080Z,1.38
2023-12-05T10:33:49.807Z,1.39
2023-12-05T10:34:53.947Z,1.45
2023-12-05T10:35:57.159Z,1.45
2023-12-05T10:37:06.104Z,1.49
2023-12-05T10:38:13.264Z,1.49
2023-12-05T10:39:15.379Z,1.47
2023-12-05T10:40:17.540Z,1.40
2023-12-05T10:41:23.501Z,1.43
2023-12-05T10:42:29.418Z,1.37
2023-12-05T10:43:31.768Z,1.32
2023-12-05T10:44:40.801Z,1.30
2023-12-05T10:45:42.982Z,1.28
2023-12-05T10:46:45.321Z,1.22
2023-12-05T10:47:47.841Z,1.22
2023-12-05T10:48:50.450Z,1.23
2023-12-05T10:49:53.187Z,1.27
2023-12-05T10:50:57.455Z,1.29
2023-12-05T10:51:59.670Z,1.35
2023-12-05T10:53:01.841Z,1.42
2023-12-05T10:54:04.339Z,1.42
2023-12-05T10:55:06.862Z,1.43
2023-12-05T10:56:13.697Z,1.46
2023-12-05T10:57:15.882Z,1.50
2023-12-05T10:58:18.102Z,1.55
2023-12-05T10:59:20.370Z,1.61
2023-12-05T11:00:22.752Z,1.67
2023-12-05T11:01:26.051Z,1.66
2023-12-05T11:02:28.929Z,1.72
2023-12-05T11:03:32.260Z,1.76
2023-12-05T11:04:34.683Z,1.74
2023-12-05T11:05:37.062Z,1.72
2023-12-05T11:06:39.337Z,1.70
2023-12-05T11:07:41.894Z,1.76
2023-12-05T11:08:44.047Z,1.75
2023-12-05T11:09:46.260Z,1.78
2023-12-05T11:10:49.583Z,1.72
2023-12-05T11:11:52.813Z,1.73
2023-12-05T11:12:56.269Z,1.72
2023-12-05T11:13:59.576Z,1.66
2023-12-05T11:15:02.960Z,1.67
2023-12-05T11:16:13.866Z,1.60
2023-12-05T11:17:22.995Z,1.53
2023-12-05T11:18:41.219Z,1.48
2023-12-05T11:20:07.199Z,1.42
2023-12-05T11:21:15.447Z,1.38
2023-12-05T11:22:39.862Z,1.33
2023-12-05T11:23:50.740Z,1.33
2023-12-05T11:25:14.710Z,1.40
2023-12-05T11:26:52.784Z,1.37
2023-12-05T11:28:33.252Z,1.37
2023-12-05T11:30:09.629Z,1.35
2023-12-05T11:31:44.824Z,1.35
2023-12-05T11:33:02.910Z,1.31
2023-12-05T11:34:20.960Z,1.34
2023-12-05T11:35:40.802Z,1.36
2023-12-05T11:36:59.453Z,1.34
2023-12-05T11:38:15.604Z,1.29
2023-12-05T11:39:18.188Z,1.28
2023-12-05T11:40:20.342Z,1.31
2023-12-05T11:41:22.553Z,1.34
2023-12-05T11:42:25.016Z,1.35
2023-12-05T11:43:27.170Z,1.35
2023-12-05T11:44:36.614Z,1.49
2023-12-05T11:45:42.174Z,1.54
2023-12-05T11:46:45.256Z,1.59
2023-12-05T11:47:47.995Z,1.54
2023-12-05T11:48:50.314Z,1.50
2023-12-05T11:50:01.554Z,1.53
2023-12-05T11:51:03.900Z,1.55
2023-12-05T11:52:13.536Z,1.60
2023-12-05T11:53:19.139Z,1.63
2023-12-05T11:54:24.469Z,1.65
2023-12-05T11:55:26.963Z,1.68
2023-12-05T11:56:29.632Z,1.73
2023-12-05T11:57:33.492Z,1.78
2023-12-05T11:58:36.210Z,1.76
2023-12-05T11:59:46.296Z,1.79
2023-12-05T12:00:50.751Z,1.72
2023-12-05T12:01:53.023Z,1.66
2023-12-05T12:02:59.034Z,1.56
2023-12-05T12:04:01.329Z,1.49
2023-12-05T12:05:06.998Z,1.52
2023-12-05T12:06:11.134Z,1.50
2023-12-05T12:07:13.420Z,1.50
2023-12-05T12:08:17.176Z,1.54
2023-12-05T12:09:19.429Z,1.61
2023-12-05T12:10:21.738Z,1.61
2023-12-05T12:11:24.210Z,1.61
2023-12-05T12:12:26.646Z,1.68
2023-12-05T12:13:28.887Z,1.75
2023-12-05T12:14:32.029Z,1.81
2023-12-05T12:15:38.146Z,1.88
2023-12-05T12:16:40.811Z,1.93
2023-12-05T12:17:46.360Z,1.92
2023-12-05T12:18:53.883Z,1.85
2023-12-05T12:19:58.219Z,1.89
2023-12-05T12:21:00.629Z,1.96
2023-12-05T12:22:10.103Z,1.91
2023-12-05T12:23:12.550Z,1.88
2023-12-05T12:24:25.477Z,1.79
2023-12-05T12:25:27.647Z,1.71
2023-12-05T12:26:33.602Z,1.62
2023-12-05T12:27:36.545Z,1.61
2023-12-05T12:28:39.285Z,1.61
2023-12-05T12:29:53.615Z,1.65
2023-12-05T12:30:59.889Z,1.58
2023-12-05T12:32:10.873Z,1.57
2023-12-05T12:33:14.791Z,1.55
2023-12-05T12:34:27.702Z,1.52
2023-12-05T12:35:30.899Z,1.55
2023-12-05T12:36:33.272Z,1.59
2023-12-05T12:37:45.480Z,1.58
2023-12-05T12:38:52.015Z,1.58
2023-12-05T12:39:54.251Z,1.64
2023-12-05T12:40:57.119Z,1.66
2023-12-05T12:41:59.581Z,1.68
2023-12-05T12:43:01.815Z,1.68
2023-12-05T12:44:06.512Z,1.62
2023-12-05T12:45:09.280Z,1.71
2023-12-05T12:46:11.649Z,1.64
2023-12-05T12:47:17.813Z,1.64
2023-12-05T12:48:20.314Z,1.64
2023-12-05T12:49:22.945Z,1.64
2023-12-05T12:50:25.124Z,1.67
2023-12-05T12:51:27.380Z,1.66
2023-12-05T12:52:29.772Z,1.64
2023-12-05T12:53:31.968Z,1.67
2023-12-05T12:54:38.632Z,1.65
2023-12-05T12:55:41.157Z,1.61
2023-12-05T12:56:43.837Z,1.58
2023-12-05T12:57:46.250Z,1.57
2023-12-05T12:58:49.941Z,1.57
2023-12-05T13:00:29.719Z,1.55
2023-12-05T13:01:21.494Z,1.53
2023-12-05T13:02:26.540Z,1.58
2023-12-05T13:03:29.523Z,1.63
2023-12-05T13:04:36.657Z,1.58
2023-12-05T13:05:40.601Z,1.56
2023-12-05T13:06:47.498Z,1.52
2023-12-05T13:07:51.889Z,1.48
2023-12-05T13:08:54.078Z,1.49
2023-12-05T13:09:57.461Z,1.46
2023-12-05T13:10:59.943Z,1.46
2023-12-05T13:12:02.199Z,1.45
2023-12-05T13:13:04.784Z,1.44
2023-12-05T13:14:11.480Z,1.42
2023-12-05T13:15:19.319Z,1.35
2023-12-05T13:16:22.051Z,1.36
2023-12-05T13:17:24.277Z,1.37
2023-12-05T13:18:26.553Z,1.38
2023-12-05T13:19:33.636Z,1.44
2023-12-05T13:20:54.108Z,1.35
2023-12-05T13:21:56.625Z,1.33
2023-12-05T13:22:59.569Z,1.31
2023-12-05T13:24:03.259Z,1.30
2023-12-05T13:25:06.043Z,1.36
2023-12-05T13:26:08.476Z,1.36
2023-12-05T13:27:12.829Z,1.36
2023-12-05T13:28:15.482Z,1.34
2023-12-05T13:29:17.715Z,1.34
2023-12-05T13:30:20.336Z,1.34
2023-12-05T13:31:22.614Z,1.33
2023-12-05T13:32:24.724Z,1.32
2023-12-05T13:33:27.057Z,1.31
2023-12-05T13:34:29.358Z,1.35
2023-12-05T13:35:31.629Z,1.34
2023-12-05T13:36:33.996Z,1.33
2023-12-05T13:37:36.848Z,1.32
2023-12-05T13:38:41.345Z,1.30
2023-12-05T13:39:43.486Z,1.33
2023-12-05T13:40:45.628Z,1.32
2023-12-05T13:41:47.775Z,1.30
2023-12-05T13:42:50.080Z,1.37
2023-12-05T13:43:52.594Z,1.38
2023-12-05T13:44:54.715Z,1.36
2023-12-05T13:45:56.949Z,1.32
2023-12-05T13:46:59.093Z,1.37
2023-12-05T13:48:01.403Z,1.38
2023-12-05T13:49:06.515Z,1.37